createdAt,value
2023-09-26T00:00:33.065Z,10.37
2023-09-26T00:03:00.037Z,10.35
2023-09-26T00:05:26.471Z,10.34
2023-09-26T00:07:53.499Z,10.30
2023-09-26T00:10:22.149Z,10.28
2023-09-26T00:12:49.180Z,10.26
2023-09-26T00:15:16.514Z,10.23
2023-09-26T00:17:43.367Z,10.25
2023-09-26T00:20:11.459Z,10.25
2023-09-26T00:22:38.081Z,10.19
2023-09-26T00:25:05.123Z,10.19
2023-09-26T00:27:31.574Z,10.15
2023-09-26T00:29:57.990Z,10.11
2023-09-26T00:32:24.843Z,10.06
2023-09-26T00:34:51.251Z,10.03
2023-09-26T00:37:18.060Z,10.01
2023-09-26T00:39:44.617Z,10.02
2023-09-26T00:42:11.018Z,9.97
2023-09-26T00:44:37.430Z,9.99
2023-09-26T00:47:04.297Z,9.99
2023-09-26T00:49:31.386Z,9.97
2023-09-26T00:52:00.826Z,9.91
2023-09-26T00:54:28.644Z,9.91
2023-09-26T00:56:55.539Z,9.89
2023-09-26T00:59:22.543Z,9.87
2023-09-26T01:01:50.665Z,9.84
2023-09-26T01:04:19.530Z,9.82
2023-09-26T01:06:48.130Z,9.82
2023-09-26T01:09:15.690Z,9.79
2023-09-26T01:11:42.432Z,9.72
2023-09-26T01:14:08.901Z,9.69
2023-09-26T01:16:35.375Z,9.72
2023-09-26T01:19:02.180Z,9.70
2023-09-26T01:21:28.684Z,9.61
2023-09-26T01:23:57.308Z,9.57
2023-09-26T01:26:24.869Z,9.53
2023-09-26T01:28:52.057Z,9.51
2023-09-26T01:31:18.754Z,9.51
2023-09-26T01:33:45.380Z,9.54
2023-09-26T01:36:11.990Z,9.48
2023-09-26T01:38:38.515Z,9.47
2023-09-26T01:41:04.991Z,9.47
2023-09-26T01:43:31.499Z,9.44
2023-09-26T01:45:58.340Z,9.41
2023-09-26T01:48:24.859Z,9.36
2023-09-26T01:50:51.331Z,9.40
2023-09-26T01:53:17.825Z,9.41
2023-09-26T01:55:44.589Z,9.30
2023-09-26T01:58:11.205Z,9.30
2023-09-26T02:00:37.720Z,9.28
2023-09-26T02:03:04.577Z,9.24
2023-09-26T02:05:31.011Z,9.24
2023-09-26T02:07:57.545Z,9.26
2023-09-26T02:10:24.375Z,9.25
2023-09-26T02:12:52.496Z,9.22
2023-09-26T02:15:19.332Z,9.26
2023-09-26T02:17:45.784Z,9.31
2023-09-26T02:20:15.638Z,9.34
2023-09-26T02:22:50.212Z,9.26
2023-09-26T02:25:20.284Z,9.21
2023-09-26T02:27:47.931Z,9.19
2023-09-26T02:30:17.110Z,9.19
2023-09-26T02:32:43.963Z,9.26
2023-09-26T02:35:13.346Z,9.30
2023-09-26T02:37:40.191Z,9.20
2023-09-26T02:40:11.314Z,9.17
2023-09-26T02:42:39.075Z,9.15
2023-09-26T02:45:06.132Z,9.17
2023-09-26T02:47:32.668Z,9.13
2023-09-26T02:49:59.135Z,9.07
2023-09-26T02:52:26.616Z,9.03
2023-09-26T02:54:53.594Z,8.99
2023-09-26T02:57:21.004Z,8.97
2023-09-26T02:59:47.825Z,8.99
2023-09-26T03:02:14.345Z,9.00
2023-09-26T03:04:40.926Z,9.02
2023-09-26T03:07:07.506Z,8.99
2023-09-26T03:09:34.583Z,9.03
2023-09-26T03:12:01.576Z,9.02
2023-09-26T03:14:28.403Z,8.95
2023-09-26T03:16:55.021Z,8.93
2023-09-26T03:19:24.932Z,8.94
2023-09-26T03:21:51.925Z,8.94
2023-09-26T03:24:19.682Z,8.92
2023-09-26T03:26:46.462Z,8.93
2023-09-26T03:29:12.934Z,8.90
2023-09-26T03:31:41.242Z,8.89
2023-09-26T03:34:09.419Z,8.83
2023-09-26T03:36:37.840Z,8.81
2023-09-26T03:39:05.111Z,8.83
2023-09-26T03:41:33.217Z,8.80
2023-09-26T03:44:00.246Z,8.77
2023-09-26T03:46:27.125Z,8.75
2023-09-26T03:48:53.784Z,8.78
2023-09-26T03:51:20.418Z,8.83
2023-09-26T03:53:47.093Z,8.82
2023-09-26T03:56:13.620Z,8.77
2023-09-26T03:58:41.661Z,8.77
2023-09-26T04:01:13.365Z,8.72
2023-09-26T04:03:41.098Z,8.69
2023-09-26T04:06:08.688Z,8.75
2023-09-26T04:08:35.348Z,8.76
2023-09-26T04:11:02.036Z,8.78
2023-09-26T04:13:28.569Z,8.75
2023-09-26T04:15:57.261Z,8.69
2023-09-26T04:18:25.393Z,8.67
2023-09-26T04:20:51.996Z,8.73
2023-09-26T04:23:18.774Z,8.74
2023-09-26T04:25:45.594Z,8.77
2023-09-26T04:28:12.156Z,8.78
2023-09-26T04:30:40.998Z,8.77
2023-09-26T04:33:09.522Z,8.76
2023-09-26T04:35:37.335Z,8.72
2023-09-26T04:38:05.390Z,8.73
2023-09-26T04:40:32.205Z,8.69
2023-09-26T04:43:03.730Z,8.67
2023-09-26T04:45:31.453Z,8.68
2023-09-26T04:47:59.636Z,8.69
2023-09-26T04:50:27.409Z,8.72
2023-09-26T04:52:54.049Z,8.73
2023-09-26T04:55:20.587Z,8.71
2023-09-26T04:57:47.172Z,8.76
2023-09-26T05:00:18.402Z,8.81
2023-09-26T05:02:46.131Z,8.88
2023-09-26T05:05:13.332Z,8.89
2023-09-26T05:07:43.039Z,8.91
2023-09-26T05:10:09.838Z,8.96
2023-09-26T05:12:41.408Z,9.01
2023-09-26T05:15:13.629Z,9.07
2023-09-26T05:17:42.320Z,9.13
2023-09-26T05:20:11.927Z,9.11
2023-09-26T05:22:42.606Z,9.11
2023-09-26T05:25:09.712Z,9.14
2023-09-26T05:27:37.937Z,9.18
2023-09-26T05:30:05.321Z,9.26
2023-09-26T05:32:31.940Z,9.29
2023-09-26T05:34:58.354Z,9.31
2023-09-26T05:37:24.874Z,9.39
2023-09-26T05:39:51.764Z,9.46
2023-09-26T05:42:18.292Z,9.59
2023-09-26T05:44:44.807Z,9.65
2023-09-26T05:47:11.399Z,9.69
2023-09-26T05:49:37.917Z,9.78
2023-09-26T05:52:04.894Z,9.89
2023-09-26T05:54:32.481Z,10.03
2023-09-26T05:56:59.119Z,10.11
2023-09-26T05:59:28.824Z,10.26
2023-09-26T06:01:55.335Z,10.40
2023-09-26T06:04:22.329Z,10.58
2023-09-26T06:06:48.943Z,10.76
2023-09-26T06:09:15.622Z,10.92
2023-09-26T06:11:42.152Z,11.06
2023-09-26T06:14:08.645Z,11.21
2023-09-26T06:16:35.705Z,11.40
2023-09-26T06:19:02.333Z,11.58
2023-09-26T06:21:28.772Z,11.78
2023-09-26T06:23:56.476Z,11.97
2023-09-26T06:26:23.168Z,12.13
2023-09-26T06:28:49.740Z,12.25
2023-09-26T06:31:16.307Z,12.45
2023-09-26T06:33:42.925Z,12.62
2023-09-26T06:36:19.315Z,12.74
2023-09-26T06:38:47.354Z,12.82
2023-09-26T06:41:14.790Z,12.94
2023-09-26T06:43:41.302Z,13.01
2023-09-26T06:46:09.578Z,13.11
2023-09-26T06:48:43.002Z,13.23
2023-09-26T06:51:09.853Z,13.29
2023-09-26T06:53:37.558Z,13.38
2023-09-26T06:56:09.310Z,13.40
2023-09-26T06:58:37.221Z,13.34
2023-09-26T07:01:04.500Z,13.42
2023-09-26T07:03:31.060Z,13.43
2023-09-26T07:05:57.799Z,13.39
2023-09-26T07:08:24.547Z,13.29
2023-09-26T07:10:51.634Z,13.24
2023-09-26T07:13:44.204Z,13.35
2023-09-26T07:16:06.645Z,13.47
2023-09-26T07:18:34.606Z,13.58
2023-09-26T07:21:06.195Z,13.77
2023-09-26T07:23:37.031Z,13.84
2023-09-26T07:26:11.816Z,13.97
2023-09-26T07:28:42.424Z,14.07
2023-09-26T07:31:11.456Z,14.14
2023-09-26T07:33:39.165Z,14.19
2023-09-26T07:36:06.072Z,14.25
2023-09-26T07:38:33.475Z,14.30
2023-09-26T07:41:04.410Z,14.37
2023-09-26T07:43:34.122Z,14.48
2023-09-26T07:46:08.736Z,14.52
2023-09-26T07:48:36.702Z,14.52
2023-09-26T07:51:04.544Z,14.56
2023-09-26T07:53:31.208Z,14.62
2023-09-26T07:55:57.761Z,14.70
2023-09-26T07:58:24.460Z,14.90
2023-09-26T08:00:53.360Z,15.16
2023-09-26T08:03:19.925Z,15.44
2023-09-26T08:05:46.388Z,15.87
2023-09-26T08:08:13.252Z,16.17
2023-09-26T08:10:40.138Z,16.52
2023-09-26T08:13:07.652Z,16.74
2023-09-26T08:15:35.280Z,16.92
2023-09-26T08:18:05.370Z,17.05
2023-09-26T08:20:32.397Z,17.17
2023-09-26T08:22:59.216Z,17.11
2023-09-26T08:25:26.570Z,17.05
2023-09-26T08:27:53.105Z,16.82
2023-09-26T08:30:19.624Z,17.01
2023-09-26T08:32:46.114Z,17.32
2023-09-26T08:35:12.825Z,17.41
2023-09-26T08:37:41.522Z,17.08
2023-09-26T08:40:13.027Z,17.20
2023-09-26T08:42:46.614Z,17.56
2023-09-26T08:45:13.399Z,17.76
2023-09-26T08:47:45.255Z,17.75
2023-09-26T08:50:12.148Z,17.66
2023-09-26T08:52:38.871Z,17.66
2023-09-26T08:55:05.660Z,17.88
2023-09-26T08:57:33.705Z,18.12
2023-09-26T09:00:03.448Z,18.30
2023-09-26T09:02:33.502Z,18.49
2023-09-26T09:05:01.590Z,18.54
2023-09-26T09:07:28.791Z,18.65
2023-09-26T09:10:08.435Z,18.65
2023-09-26T09:12:38.791Z,18.62
2023-09-26T09:15:20.389Z,18.88
2023-09-26T09:17:48.131Z,18.94
2023-09-26T09:20:18.261Z,18.72
2023-09-26T09:22:47.388Z,18.71
2023-09-26T09:25:14.131Z,18.97
2023-09-26T09:27:44.218Z,18.93
2023-09-26T09:30:20.584Z,19.08
2023-09-26T09:32:47.707Z,19.24
2023-09-26T09:35:17.184Z,19.15
2023-09-26T09:37:46.572Z,19.07
2023-09-26T09:40:21.242Z,19.15
2023-09-26T09:42:52.499Z,19.33
2023-09-26T09:45:19.802Z,19.30
2023-09-26T09:47:47.358Z,19.32
2023-09-26T09:50:15.300Z,19.37
2023-09-26T09:52:45.175Z,19.41
2023-09-26T09:55:24.192Z,19.29
2023-09-26T09:57:52.984Z,19.29
2023-09-26T10:00:21.327Z,19.41
2023-09-26T10:02:47.899Z,19.64
2023-09-26T10:05:15.774Z,19.68
2023-09-26T10:07:44.600Z,19.58
2023-09-26T10:10:13.039Z,19.51
2023-09-26T10:12:55.199Z,19.62
2023-09-26T10:15:34.621Z,19.51
2023-09-26T10:18:03.342Z,19.76
2023-09-26T10:20:48.980Z,20.00
2023-09-26T10:23:16.358Z,20.22
2023-09-26T10:25:42.967Z,20.35
2023-09-26T10:28:09.616Z,20.74
2023-09-26T10:30:48.868Z,21.00
2023-09-26T10:35:45.895Z,21.70
2023-09-26T10:38:24.336Z,21.53
2023-09-26T10:40:52.201Z,21.68
2023-09-26T10:43:44.882Z,21.29
2023-09-26T10:46:05.706Z,21.60
2023-09-26T10:48:32.368Z,21.77
2023-09-26T10:50:59.985Z,22.17
2023-09-26T10:53:26.571Z,22.27
2023-09-26T10:55:53.092Z,22.58
2023-09-26T11:01:10.121Z,23.02
2023-09-26T11:03:36.739Z,22.59
2023-09-26T11:06:05.679Z,22.61
2023-09-26T11:08:32.540Z,22.64
2023-09-26T11:10:59.778Z,22.57
2023-09-26T11:13:26.608Z,22.17
2023-09-26T11:15:54.283Z,22.17
2023-09-26T11:18:21.116Z,22.07
2023-09-26T11:20:50.975Z,22.18
2023-09-26T11:23:37.700Z,22.26
2023-09-26T11:26:05.511Z,22.71
2023-09-26T11:28:33.704Z,22.68
2023-09-26T11:31:01.722Z,22.64
2023-09-26T11:33:28.843Z,22.75
2023-09-26T11:35:55.736Z,22.91
2023-09-26T11:38:22.148Z,22.94
2023-09-26T11:40:48.731Z,22.83
2023-09-26T11:43:15.272Z,22.85
2023-09-26T11:45:41.813Z,22.85
2023-09-26T11:48:08.287Z,22.90
2023-09-26T11:50:37.105Z,22.69
2023-09-26T11:53:04.071Z,23.19
2023-09-26T11:55:31.584Z,23.53
2023-09-26T11:57:59.792Z,23.69
2023-09-26T12:00:27.883Z,23.54
2023-09-26T12:02:54.881Z,23.09
2023-09-26T12:05:22.978Z,23.19
2023-09-26T12:07:50.609Z,23.54
2023-09-26T12:10:19.214Z,23.46
2023-09-26T12:12:47.188Z,23.43
2023-09-26T12:15:22.117Z,23.52
2023-09-26T12:17:50.273Z,23.66
2023-09-26T12:20:19.450Z,23.68
2023-09-26T12:22:45.983Z,23.91
2023-09-26T12:25:12.995Z,23.94
2023-09-26T12:27:39.552Z,23.91
2023-09-26T12:30:06.716Z,23.84
2023-09-26T12:32:33.934Z,23.95
2023-09-26T12:35:00.841Z,23.60
2023-09-26T12:37:27.599Z,23.68
2023-09-26T12:39:54.356Z,23.85
2023-09-26T12:42:20.797Z,23.88
2023-09-26T12:44:47.390Z,24.00
2023-09-26T12:47:15.107Z,24.21
2023-09-26T12:49:42.741Z,24.33
2023-09-26T12:52:10.207Z,24.20
2023-09-26T12:54:37.840Z,23.82
2023-09-26T12:57:04.355Z,23.53
2023-09-26T12:59:30.863Z,23.67
2023-09-26T13:01:57.468Z,23.64
2023-09-26T13:04:24.548Z,23.87
2023-09-26T13:06:51.205Z,24.30
2023-09-26T13:09:17.758Z,24.36
2023-09-26T13:11:44.222Z,24.80
2023-09-26T13:14:11.619Z,24.99
2023-09-26T13:16:38.174Z,24.52
2023-09-26T13:19:04.778Z,24.19
2023-09-26T13:21:31.339Z,24.29
2023-09-26T13:23:57.817Z,24.22
2023-09-26T13:26:24.405Z,24.16
2023-09-26T13:28:50.930Z,24.10
2023-09-26T13:31:17.484Z,24.11
2023-09-26T13:33:43.963Z,24.10
2023-09-26T13:36:10.627Z,24.06
2023-09-26T13:38:37.911Z,23.90
2023-09-26T13:41:06.643Z,23.90
2023-09-26T13:43:36.432Z,24.01
2023-09-26T13:46:03.479Z,23.94
2023-09-26T13:48:30.044Z,23.98
2023-09-26T13:50:56.782Z,24.02
2023-09-26T13:53:25.554Z,23.74
2023-09-26T13:55:52.164Z,23.94
2023-09-26T13:58:18.692Z,24.11
2023-09-26T14:00:45.172Z,23.96
2023-09-26T14:03:11.677Z,23.67
2023-09-26T14:05:38.477Z,23.67
2023-09-26T14:08:05.510Z,23.57
2023-09-26T14:10:31.988Z,23.71
2023-09-26T14:12:59.792Z,23.96
2023-09-26T14:15:26.476Z,23.75
2023-09-26T14:17:53.044Z,23.66
2023-09-26T14:20:19.662Z,23.45
2023-09-26T14:22:46.238Z,23.26
2023-09-26T14:25:12.718Z,23.17
2023-09-26T14:27:39.960Z,23.12
2023-09-26T14:30:09.710Z,22.94
2023-09-26T14:32:41.729Z,22.79
2023-09-26T14:35:09.923Z,22.81
2023-09-26T14:37:36.746Z,22.89
2023-09-26T14:40:04.317Z,22.97
2023-09-26T14:42:30.789Z,22.97
2023-09-26T14:44:57.358Z,22.92
2023-09-26T14:47:23.995Z,22.94
2023-09-26T14:49:50.606Z,22.95
2023-09-26T14:52:17.099Z,22.93
2023-09-26T14:54:43.776Z,22.86
2023-09-26T14:57:10.391Z,22.82
2023-09-26T14:59:36.853Z,22.81
2023-09-26T15:02:04.151Z,22.78
2023-09-26T15:04:31.079Z,22.67
2023-09-26T15:06:57.676Z,22.54
2023-09-26T15:09:24.169Z,22.44
2023-09-26T15:11:50.626Z,22.24
2023-09-26T15:14:17.585Z,22.17
2023-09-26T15:16:44.483Z,22.07
2023-09-26T15:19:11.020Z,22.12
2023-09-26T15:21:38.000Z,22.02
2023-09-26T15:24:04.847Z,21.90
2023-09-26T15:26:31.457Z,21.83
2023-09-26T15:28:59.644Z,21.69
2023-09-26T15:31:26.427Z,21.62
2023-09-26T15:33:52.986Z,21.57
2023-09-26T15:36:19.500Z,21.48
2023-09-26T15:38:45.999Z,21.34
2023-09-26T15:41:21.607Z,21.28
2023-09-26T15:43:53.146Z,21.30
2023-09-26T15:46:21.108Z,21.28
2023-09-26T15:48:48.620Z,21.21
2023-09-26T15:51:16.603Z,21.13
2023-09-26T15:53:44.803Z,20.87
2023-09-26T15:56:12.714Z,20.81
2023-09-26T15:58:40.046Z,20.75
2023-09-26T16:01:07.975Z,20.73
2023-09-26T16:03:35.494Z,20.67
2023-09-26T16:06:02.583Z,20.58
2023-09-26T16:08:29.861Z,20.48
2023-09-26T16:10:56.380Z,20.41
2023-09-26T16:13:23.491Z,20.36
2023-09-26T16:15:50.026Z,20.31
2023-09-26T16:18:16.580Z,20.23
2023-09-26T16:20:43.317Z,20.19
2023-09-26T16:23:10.551Z,20.11
2023-09-26T16:25:37.963Z,20.03
2023-09-26T16:28:04.708Z,19.97
2023-09-26T16:30:34.084Z,19.88
2023-09-26T16:33:01.214Z,19.77
2023-09-26T16:35:28.793Z,19.69
2023-09-26T16:37:56.324Z,19.58
2023-09-26T16:40:23.194Z,19.44
2023-09-26T16:42:50.882Z,19.31
2023-09-26T16:45:17.514Z,19.16
2023-09-26T16:47:45.216Z,19.02
2023-09-26T16:50:13.770Z,18.87
2023-09-26T16:52:40.521Z,18.77
2023-09-26T16:55:08.115Z,18.65
2023-09-26T16:57:35.431Z,18.53
2023-09-26T17:00:02.279Z,18.35
2023-09-26T17:02:29.305Z,18.26
2023-09-26T17:04:55.876Z,18.18
2023-09-26T17:07:22.631Z,18.06
2023-09-26T17:09:49.229Z,17.97
2023-09-26T17:12:16.665Z,17.89
2023-09-26T17:14:43.242Z,17.83
2023-09-26T17:17:09.822Z,17.73
2023-09-26T17:19:36.570Z,17.71
2023-09-26T17:22:03.386Z,17.63
2023-09-26T17:24:30.032Z,17.54
2023-09-26T17:26:56.462Z,17.42
2023-09-26T17:29:23.308Z,17.32
2023-09-26T17:31:49.969Z,17.24
2023-09-26T17:34:16.654Z,17.19
2023-09-26T17:36:43.106Z,17.17
2023-09-26T17:39:12.848Z,17.10
2023-09-26T17:41:41.581Z,17.06
2023-09-26T17:44:09.961Z,16.99
2023-09-26T17:46:37.033Z,16.91
2023-09-26T17:49:04.590Z,16.87
2023-09-26T17:51:31.080Z,16.83
2023-09-26T17:53:57.557Z,16.87
2023-09-26T17:56:24.199Z,16.85
2023-09-26T17:58:51.209Z,16.80
2023-09-26T18:01:19.576Z,16.76
2023-09-26T18:03:46.226Z,16.77
2023-09-26T18:06:13.268Z,16.71
2023-09-26T18:08:40.905Z,16.68
2023-09-26T18:11:07.696Z,16.67
2023-09-26T18:13:34.222Z,16.65
2023-09-26T18:16:01.044Z,16.61
2023-09-26T18:18:27.808Z,16.55
2023-09-26T18:20:54.323Z,16.50
2023-09-26T18:23:20.819Z,16.49
2023-09-26T18:25:47.659Z,16.47
2023-09-26T18:28:19.173Z,16.43
2023-09-26T18:30:45.717Z,16.38
2023-09-26T18:33:12.356Z,16.32
2023-09-26T18:35:43.703Z,16.25
2023-09-26T18:38:10.943Z,16.19
2023-09-26T18:40:38.101Z,16.15
2023-09-26T18:43:04.895Z,16.13
2023-09-26T18:45:31.462Z,16.13
2023-09-26T18:47:58.077Z,16.12
2023-09-26T18:50:24.655Z,16.09
2023-09-26T18:52:51.186Z,15.98
2023-09-26T18:55:18.058Z,15.97
2023-09-26T18:57:45.098Z,15.95
2023-09-26T19:00:12.344Z,15.89
2023-09-26T19:02:39.320Z,15.85
2023-09-26T19:05:06.659Z,15.82
2023-09-26T19:07:33.634Z,15.80
2023-09-26T19:10:00.345Z,15.76
2023-09-26T19:12:27.237Z,15.75
2023-09-26T19:14:54.084Z,15.70
2023-09-26T19:17:20.657Z,15.69
2023-09-26T19:19:47.496Z,15.65
2023-09-26T19:22:16.183Z,15.58
2023-09-26T19:24:42.811Z,15.53
2023-09-26T19:27:09.309Z,15.50
2023-09-26T19:29:35.713Z,15.47
2023-09-26T19:32:03.152Z,15.45
2023-09-26T19:34:29.992Z,15.43
2023-09-26T19:36:56.431Z,15.40
2023-09-26T19:39:22.865Z,15.36
2023-09-26T19:41:49.318Z,15.34
2023-09-26T19:44:15.849Z,15.27
2023-09-26T19:46:42.614Z,15.25
2023-09-26T19:49:09.222Z,15.24
2023-09-26T19:51:35.689Z,15.23
2023-09-26T19:54:02.199Z,15.23
2023-09-26T19:56:28.670Z,15.23
2023-09-26T19:58:55.304Z,15.21
2023-09-26T20:01:25.803Z,15.21
2023-09-26T20:03:52.917Z,15.23
2023-09-26T20:06:20.372Z,15.20
2023-09-26T20:08:48.573Z,15.20
2023-09-26T20:11:15.357Z,15.16
2023-09-26T20:13:42.104Z,15.17
2023-09-26T20:16:08.642Z,15.17
2023-09-26T20:18:36.888Z,15.14
2023-09-26T20:21:03.683Z,15.11
2023-09-26T20:23:30.095Z,15.09
2023-09-26T20:26:00.357Z,15.06
2023-09-26T20:28:26.928Z,15.04
2023-09-26T20:30:53.847Z,15.02
2023-09-26T20:33:21.207Z,15.01
2023-09-26T20:36:01.133Z,14.97
2023-09-26T20:38:27.917Z,14.88
2023-09-26T20:41:11.026Z,14.81
2023-09-26T20:43:39.594Z,14.72
2023-09-26T20:46:06.462Z,14.63
2023-09-26T20:48:33.270Z,14.59
2023-09-26T20:51:05.615Z,14.57
2023-09-26T20:53:32.294Z,14.55
2023-09-26T20:56:06.139Z,14.47
2023-09-26T20:58:34.228Z,14.45
2023-09-26T21:01:11.611Z,14.46
2023-09-26T21:03:38.869Z,14.44
2023-09-26T21:06:10.169Z,14.41
2023-09-26T21:08:36.659Z,14.37
2023-09-26T21:11:03.726Z,14.33
2023-09-26T21:13:31.471Z,14.28
2023-09-26T21:16:13.841Z,14.19
2023-09-26T21:18:41.618Z,14.13
2023-09-26T21:21:09.242Z,14.07
2023-09-26T21:23:35.721Z,14.05
2023-09-26T21:26:02.374Z,14.03
2023-09-26T21:28:28.980Z,14.02
2023-09-26T21:30:55.471Z,14.00
2023-09-26T21:33:21.962Z,13.97
2023-09-26T21:35:48.449Z,13.97
2023-09-26T21:38:14.938Z,14.01
2023-09-26T21:40:41.431Z,14.02
2023-09-26T21:43:07.941Z,13.98
2023-09-26T21:45:39.527Z,13.94
2023-09-26T21:48:07.400Z,13.89
2023-09-26T21:50:35.889Z,13.82
2023-09-26T21:53:02.751Z,13.76
2023-09-26T21:55:30.311Z,13.70
2023-09-26T21:57:56.846Z,13.64
2023-09-26T22:00:24.579Z,13.60
2023-09-26T22:02:52.295Z,13.54
2023-09-26T22:05:22.498Z,13.58
2023-09-26T22:07:50.392Z,13.60
2023-09-26T22:10:17.161Z,13.59
2023-09-26T22:12:44.095Z,13.53
2023-09-26T22:15:11.290Z,13.48
2023-09-26T22:17:41.061Z,13.48
2023-09-26T22:20:18.794Z,13.46
2023-09-26T22:22:46.095Z,13.42
2023-09-26T22:25:15.115Z,13.43
2023-09-26T22:27:42.005Z,13.41
2023-09-26T22:30:10.463Z,13.40
2023-09-26T22:32:37.485Z,13.36
2023-09-26T22:35:04.778Z,13.36
2023-09-26T22:37:31.275Z,13.32
2023-09-26T22:39:57.681Z,13.27
2023-09-26T22:42:24.491Z,13.28
2023-09-26T22:44:52.379Z,13.25
2023-09-26T22:47:19.207Z,13.26
2023-09-26T22:49:45.813Z,13.26
2023-09-26T22:52:12.922Z,13.28
2023-09-26T22:54:39.679Z,13.25
2023-09-26T22:57:06.279Z,13.21
2023-09-26T22:59:33.015Z,13.20
2023-09-26T23:01:59.608Z,13.20
2023-09-26T23:04:26.157Z,13.17
2023-09-26T23:06:52.672Z,13.17
2023-09-26T23:09:19.105Z,13.19
2023-09-26T23:11:45.648Z,13.16
2023-09-26T23:14:12.277Z,13.20
2023-09-26T23:16:38.881Z,13.16
2023-09-26T23:19:08.826Z,13.14
2023-09-26T23:21:35.539Z,13.11
2023-09-26T23:24:03.486Z,13.11
2023-09-26T23:26:30.719Z,13.06
2023-09-26T23:28:57.336Z,13.03
2023-09-26T23:31:24.558Z,12.99
2023-09-26T23:33:51.629Z,12.96
2023-09-26T23:36:19.310Z,12.93
2023-09-26T23:38:45.925Z,12.94
2023-09-26T23:41:12.616Z,12.94
2023-09-26T23:43:40.314Z,12.88
2023-09-26T23:46:06.833Z,12.89
2023-09-26T23:48:33.403Z,12.85
2023-09-26T23:51:00.245Z,12.83
2023-09-26T23:53:30.361Z,12.83
2023-09-26T23:55:57.526Z,12.82
2023-09-26T23:58:23.998Z,12.76
